Time;durP1;ratioP1;P1;durP2;ratioP2;P2;SDS_P1;SDS_P2;PMS_P1;PMS_P2;Temp;Humidity;BMP_temperature;BMP_pressure;BME280_temperature;BME280_humidity;BME280_pressure;Samples;Min_cycle;Max_cycle;Signal;HPM_P1;HPM_P2
2023/08/27 00:00:15;;;;;;;;;2.67;2.67;;;;;25.15;88.13;100458.22;2121593;27;45903;-71
2023/08/27 00:01:15;;;;;;;;;2.00;2.00;;;;;25.13;88.08;100460.22;2121689;27;48346;-73
2023/08/27 00:02:15;;;;;;;;;0.00;0.00;;;;;25.09;88.24;100454.19;2121620;27;47112;-71
2023/08/27 00:03:16;;;;;;;;;1.00;1.00;;;;;25.09;88.03;100446.06;2121989;27;45957;-72
2023/08/27 00:04:16;;;;;;;;;1.00;1.00;;;;;25.08;88.45;100443.47;2120734;27;46200;-72
2023/08/27 00:05:16;;;;;;;;;2.33;2.33;;;;;25.10;88.55;100449.63;2121642;27;45744;-73
2023/08/27 00:06:17;;;;;;;;;2.33;2.33;;;;;25.11;88.49;100441.34;2117739;27;46696;-72
2023/08/27 00:07:17;;;;;;;;;1.00;1.00;;;;;25.12;88.79;100443.06;2116321;27;46656;-70
2023/08/27 00:08:17;;;;;;;;;3.00;2.00;;;;;25.10;88.62;100445.06;2115384;27;45213;-71
2023/08/27 00:09:18;;;;;;;;;1.00;1.00;;;;;25.08;88.70;100436.19;2121244;27;46584;-69
2023/08/27 00:10:18;;;;;;;;;1.00;1.00;;;;;25.05;88.38;100436.47;2121658;27;46447;-71
2023/08/27 00:11:18;;;;;;;;;0.67;0.67;;;;;25.05;88.96;100438.31;2121714;27;45576;-71
2023/08/27 00:12:20;;;;;;;;;3.00;2.00;;;;;25.02;88.84;100434.00;2122774;27;46608;-70
2023/08/27 00:13:20;;;;;;;;;0.75;0.75;;;;;25.02;89.39;100441.28;2123069;27;45174;-70
2023/08/27 00:14:20;;;;;;;;;2.00;1.00;;;;;25.00;89.47;100440.53;2121638;27;46716;-72
2023/08/27 00:15:21;;;;;;;;;1.00;1.00;;;;;24.97;89.54;100430.78;2116280;27;45588;-72
2023/08/27 00:16:21;;;;;;;;;2.00;2.00;;;;;24.97;89.71;100433.50;2117114;27;46450;-71
2023/08/27 00:17:21;;;;;;;;;5.00;3.00;;;;;24.95;90.15;100430.94;2114800;27;45393;-71
2023/08/27 00:18:22;;;;;;;;;3.00;2.33;;;;;24.95;89.96;100427.34;2122020;27;45711;-71
2023/08/27 00:19:22;;;;;;;;;2.00;1.00;;;;;24.95;90.26;100424.63;2121605;27;45910;-71
2023/08/27 00:20:22;;;;;;;;;1.67;1.67;;;;;24.94;90.23;100433.78;2122537;27;46871;-70
2023/08/27 00:21:23;;;;;;;;;2.00;2.00;;;;;24.93;90.22;100430.22;2123490;27;45037;-70
2023/08/27 00:22:23;;;;;;;;;1.67;1.67;;;;;24.93;90.04;100430.22;2122204;27;46412;-71
2023/08/27 00:23:24;;;;;;;;;2.00;2.00;;;;;24.93;90.07;100430.22;2122811;27;45985;-72
2023/08/27 00:24:24;;;;;;;;;3.25;3.25;;;;;24.92;90.04;100433.06;2123179;27;45707;-70
2023/08/27 00:25:25;;;;;;;;;3.00;3.00;;;;;24.91;90.39;100432.19;2123402;27;48322;-71
2023/08/27 00:26:25;;;;;;;;;3.00;3.00;;;;;24.89;90.54;100434.16;2122359;27;47115;-71
2023/08/27 00:27:25;;;;;;;;;2.67;2.00;;;;;24.86;90.61;100439.84;2123111;27;46647;-70
2023/08/27 00:28:26;;;;;;;;;2.00;2.00;;;;;24.85;90.44;100429.13;2123567;27;45983;-70
2023/08/27 00:29:26;;;;;;;;;2.67;2.67;;;;;24.83;90.08;100441.97;2118237;27;45681;-71
2023/08/27 00:30:26;;;;;;;;;2.00;2.00;;;;;24.82;90.99;100429.41;2115060;27;45415;-71
2023/08/27 00:31:27;;;;;;;;;2.67;2.00;;;;;24.80;90.04;100434.97;2115415;27;45894;-71
2023/08/27 00:32:28;;;;;;;;;1.67;1.67;;;;;24.79;90.48;100435.09;2114142;27;46239;-70
2023/08/27 00:33:29;;;;;;;;;1.00;1.00;;;;;24.77;90.04;100434.34;2115006;27;45617;-70
2023/08/27 00:34:34;;;;;;;;;2.00;2.00;;;;;24.78;89.89;100430.66;2120406;27;47274;-71
2023/08/27 00:35:36;;;;;;;;;1.00;1.00;;;;;24.76;90.36;100432.63;2123169;27;46005;-70
2023/08/27 00:36:36;;;;;;;;;0.75;0.75;;;;;24.75;90.56;100428.19;2123258;27;45060;-71
2023/08/27 00:37:36;;;;;;;;;2.00;1.00;;;;;24.73;89.88;100424.75;2122787;27;46314;-71
2023/08/27 00:38:37;;;;;;;;;0.67;0.67;;;;;24.73;89.95;100425.63;2122779;27;46292;-71
2023/08/27 00:39:38;;;;;;;;;1.00;1.00;;;;;24.72;89.61;100423.03;2116549;27;46441;-71
2023/08/27 00:40:40;;;;;;;;;0.00;0.00;;;;;24.69;89.79;100426.88;2119185;27;46287;-70
2023/08/27 00:41:40;;;;;;;;;1.50;0.00;;;;;24.68;89.94;100427.00;2114240;27;46500;-71
2023/08/27 00:42:41;;;;;;;;;1.67;1.67;;;;;24.65;89.96;100428.13;2112083;27;46870;-70
2023/08/27 00:43:41;;;;;;;;;0.00;0.00;;;;;24.63;90.53;100425.53;2116929;27;46366;-70
2023/08/27 00:44:42;;;;;;;;;0.00;0.00;;;;;24.61;90.06;100432.94;2114406;27;46361;-70
2023/08/27 00:45:42;;;;;;;;;0.33;0.33;;;;;24.62;90.48;100428.38;2119704;27;46319;-70
2023/08/27 00:46:43;;;;;;;;;0.67;0.67;;;;;24.62;90.10;100422.94;2121147;27;47107;-71
2023/08/27 00:47:43;;;;;;;;;0.00;0.00;;;;;24.60;90.31;100431.22;2114690;27;45162;-71
2023/08/27 00:48:44;;;;;;;;;0.00;0.00;;;;;24.59;89.97;100434.94;2101705;28;45903;-70
2023/08/27 00:49:45;;;;;;;;;1.33;0.00;;;;;24.57;90.01;100428.78;2105261;27;46772;-71
2023/08/27 00:50:45;;;;;;;;;0.33;0.33;;;;;24.56;90.16;100429.78;2117612;27;46020;-71
2023/08/27 00:51:46;;;;;;;;;1.00;0.00;;;;;24.56;90.13;100434.34;2116210;27;46845;-70
2023/08/27 00:52:47;;;;;;;;;0.67;0.67;;;;;24.54;90.19;100428.19;2123251;27;45935;-71
2023/08/27 00:53:48;;;;;;;;;0.00;0.00;;;;;24.52;90.40;100432.84;2122811;27;45817;-71
2023/08/27 00:54:48;;;;;;;;;0.00;0.00;;;;;24.49;90.42;100436.69;2122921;27;45965;-71
2023/08/27 00:55:51;;;;;;;;;0.00;0.00;;;;;24.48;90.29;100439.53;2123104;27;45625;-71
2023/08/27 00:56:51;;;;;;;;;0.50;0.50;;;;;24.46;90.26;100436.97;2122990;27;45676;-70
2023/08/27 00:57:51;;;;;;;;;0.00;0.00;;;;;24.45;90.00;100437.94;2122869;27;46352;-70
2023/08/27 00:58:52;;;;;;;;;0.00;0.00;;;;;24.42;89.73;100432.78;2122288;27;46575;-71
2023/08/27 00:59:55;;;;;;;;;1.00;0.67;;;;;24.42;90.29;100434.66;2121838;27;45963;-70
2023/08/27 01:00:55;;;;;;;;;0.25;0.25;;;;;24.40;89.82;100433.91;2114550;27;46344;-70
2023/08/27 01:01:56;;;;;;;;;0.00;0.00;;;;;24.40;89.72;100442.06;2119037;27;45713;-70
2023/08/27 01:02:56;;;;;;;;;0.00;0.00;;;;;24.38;89.79;100439.44;2122677;27;45866;-70
2023/08/27 01:03:56;;;;;;;;;0.00;0.00;;;;;24.39;89.87;100443.00;2122339;27;45171;-71
2023/08/27 01:04:58;;;;;;;;;0.00;0.00;;;;;24.41;89.90;100446.47;2122857;27;46559;-70
2023/08/27 01:06:02;;;;;;;;;0.00;0.00;;;;;24.41;89.62;100441.06;2122819;27;46751;-71
2023/08/27 01:07:14;;;;;;;;;0.00;0.00;;;;;24.40;89.71;100442.06;2113561;27;46029;-70
2023/08/27 01:08:41;;;;;;;;;0.00;0.00;;;;;24.36;90.09;100436.88;2115362;27;46290;-71
2023/08/27 01:09:56;;;;;;;;;0.00;0.00;;;;;24.35;90.85;100434.28;2123263;27;45076;-71
2023/08/27 01:11:10;;;;;;;;;0.00;0.00;;;;;24.35;90.85;100432.44;2123058;27;45628;-70
2023/08/27 01:12:16;;;;;;;;;0.00;0.00;;;;;24.36;91.11;100436.88;2122715;27;46643;-70
2023/08/27 01:13:22;;;;;;;;;0.00;0.00;;;;;24.38;91.68;100433.16;2122311;27;46619;-70
2023/08/27 01:14:26;;;;;;;;;0.25;0.25;;;;;24.36;91.89;100428.72;2122708;27;46077;-70
2023/08/27 01:15:28;;;;;;;;;0.00;0.00;;;;;24.38;91.75;100427.72;2122980;27;46037;-70
2023/08/27 01:16:29;;;;;;;;;0.00;0.00;;;;;24.36;91.54;100427.88;2116850;27;45773;-70
2023/08/27 01:17:32;;;;;;;;;0.00;0.00;;;;;24.36;91.90;100428.72;2114822;27;46749;-71
2023/08/27 01:18:35;;;;;;;;;0.00;0.00;;;;;24.36;92.45;100433.28;2122529;27;46027;-70
2023/08/27 01:19:36;;;;;;;;;2.00;1.00;;;;;24.37;92.68;100426.88;2117265;27;46299;-70
2023/08/27 01:20:36;;;;;;;;;0.75;0.75;;;;;24.35;92.46;100435.13;2113913;27;45976;-70
2023/08/27 01:21:37;;;;;;;;;0.00;0.00;;;;;24.38;92.93;100430.44;2122556;27;47186;-70
2023/08/27 01:22:37;;;;;;;;;0.00;0.00;;;;;24.38;93.22;100430.44;2122461;27;45467;-71
2023/08/27 01:23:37;;;;;;;;;0.00;0.00;;;;;24.37;93.07;100435.00;2122612;27;46736;-70
2023/08/27 01:24:38;;;;;;;;;1.33;1.00;;;;;24.35;93.24;100435.13;2122087;27;46241;-71
2023/08/27 01:25:46;;;;;;;;;0.67;0.67;;;;;24.38;93.71;100431.31;2122447;27;45030;-70
2023/08/27 01:27:03;;;;;;;;;0.00;0.00;;;;;24.36;93.85;100436.00;2114820;27;45737;-70
2023/08/27 01:28:14;;;;;;;;;0.25;0.25;;;;;24.35;94.00;100429.72;2115903;27;45611;-71
2023/08/27 01:29:26;;;;;;;;;0.00;0.00;;;;;24.36;93.95;100430.56;2118915;27;46811;-70
2023/08/27 01:30:33;;;;;;;;;0.50;0.50;;;;;24.35;93.76;100429.72;2122372;27;46613;-71
2023/08/27 01:31:39;;;;;;;;;0.75;0.75;;;;;24.34;93.73;100427.13;2122919;27;45791;-70
2023/08/27 01:32:51;;;;;;;;;0.75;0.75;;;;;24.33;94.02;100429.00;2122450;27;47211;-71
2023/08/27 01:33:56;;;;;;;;;0.00;0.00;;;;;24.32;94.16;100424.56;2122996;27;45875;-70
2023/08/27 01:34:57;;;;;;;;;0.25;0.25;;;;;24.31;94.10;100425.56;2104117;28;46648;-70
2023/08/27 01:35:58;;;;;;;;;0.00;0.00;;;;;24.31;94.05;100421.97;2100794;27;45422;-70
2023/08/27 01:37:00;;;;;;;;;0.75;0.75;;;;;24.29;93.88;100422.06;2104205;28;46548;-70
2023/08/27 01:38:00;;;;;;;;;0.00;0.00;;;;;24.29;93.96;100421.22;2104757;28;46749;-70
2023/08/27 01:39:03;;;;;;;;;0.00;0.00;;;;;24.29;93.86;100421.22;2104468;28;47073;-70
2023/08/27 01:40:08;;;;;;;;;1.00;0.00;;;;;24.29;94.33;100419.38;2098440;28;46208;-70
2023/08/27 01:41:08;;;;;;;;;1.25;0.00;;;;;24.27;94.49;100423.19;2105268;28;46612;-71
2023/08/27 01:42:09;;;;;;;;;0.67;0.00;;;;;24.25;94.80;100420.59;2104897;28;46668;-70
2023/08/27 01:43:09;;;;;;;;;0.00;0.00;;;;;24.25;94.76;100419.72;2105718;27;45647;-70
2023/08/27 01:44:10;;;;;;;;;0.33;0.00;;;;;24.23;94.74;100421.72;2106137;27;45574;-70
2023/08/27 01:45:12;;;;;;;;;0.00;0.00;;;;;24.17;94.93;100420.38;2095610;28;47014;-70
2023/08/27 01:46:12;;;;;;;;;0.00;0.00;;;;;24.18;94.59;100421.25;2096011;28;46534;-70
2023/08/27 01:47:13;;;;;;;;;0.33;0.33;;;;;24.16;94.95;100424.09;2104017;28;46592;-69
2023/08/27 01:48:13;;;;;;;;;0.00;0.00;;;;;24.17;94.94;100425.81;2096355;28;45871;-70
2023/08/27 01:49:13;;;;;;;;;0.00;0.00;;;;;24.17;94.80;100428.53;2104396;28;46624;-70
2023/08/27 01:50:14;;;;;;;;;0.00;0.00;;;;;24.18;94.80;100426.66;2104299;28;45203;-70
2023/08/27 01:51:14;;;;;;;;;2.00;0.00;;;;;24.19;94.32;100418.41;2088272;28;46020;-70
2023/08/27 01:52:14;;;;;;;;;0.00;0.00;;;;;24.21;94.11;100420.97;2093169;28;46572;-69
2023/08/27 01:53:14;;;;;;;;;0.00;0.00;;;;;24.21;94.35;100418.28;2104380;28;46396;-69
2023/08/27 01:54:16;;;;;;;;;0.00;0.00;;;;;24.25;94.60;100422.44;2104550;28;46484;-69
2023/08/27 01:55:17;;;;;;;;;0.00;0.00;;;;;24.26;94.04;100425.03;2104271;28;46719;-69
2023/08/27 01:56:17;;;;;;;;;0.00;0.00;;;;;24.25;94.23;100419.72;2095480;28;46336;-70
2023/08/27 01:57:17;;;;;;;;;0.00;0.00;;;;;24.24;93.77;100418.88;2096162;28;45558;-69
2023/08/27 01:58:17;;;;;;;;;0.00;0.00;;;;;24.22;93.85;100407.28;2104104;28;46898;-71
2023/08/27 01:59:18;;;;;;;;;0.00;0.00;;;;;24.22;92.99;100415.44;2104590;28;45042;-70
2023/08/27 02:00:20;;;;;;;;;0.67;0.00;;;;;24.22;93.31;100409.16;2097557;28;46925;-70
2023/08/27 02:01:20;;;;;;;;;0.50;0.50;;;;;24.23;92.71;100416.28;2098091;28;45308;-69
2023/08/27 02:02:21;;;;;;;;;2.00;0.33;;;;;24.21;92.93;100410.13;2104269;28;46470;-70
2023/08/27 02:03:22;;;;;;;;;0.00;0.00;;;;;24.20;92.71;100416.56;2104251;28;46994;-69
2023/08/27 02:04:22;;;;;;;;;0.00;0.00;;;;;24.19;92.52;100418.41;2103642;28;48550;-70
2023/08/27 02:05:23;;;;;;;;;0.00;0.00;;;;;24.19;93.04;100414.84;2104417;28;45899;-70
2023/08/27 02:06:23;;;;;;;;;0.00;0.00;;;;;24.16;93.21;100415.94;2106960;27;46121;-70
2023/08/27 02:07:24;;;;;;;;;0.00;0.00;;;;;24.17;93.14;100420.38;2113994;27;45710;-68
2023/08/27 02:08:24;;;;;;;;;0.00;0.00;;;;;24.16;93.14;100420.53;2114949;27;46506;-68
2023/08/27 02:09:24;;;;;;;;;0.00;0.00;;;;;24.14;92.88;100422.47;2122558;27;46029;-70
2023/08/27 02:10:25;;;;;;;;;0.00;0.00;;;;;24.13;93.14;100427.03;2122361;27;45231;-70
2023/08/27 02:11:25;;;;;;;;;0.00;0.00;;;;;24.13;93.25;100427.03;2122354;27;45681;-70
2023/08/27 02:12:26;;;;;;;;;0.00;0.00;;;;;24.13;93.25;100415.31;2122088;27;46115;-70
2023/08/27 02:13:26;;;;;;;;;0.00;0.00;;;;;24.13;93.78;100424.31;2122488;27;46615;-68
2023/08/27 02:14:27;;;;;;;;;1.00;0.00;;;;;24.14;93.61;100419.75;2112780;27;46209;-69
2023/08/27 02:15:27;;;;;;;;;0.00;0.00;;;;;24.14;93.51;100425.19;2113362;27;46130;-69
2023/08/27 02:16:28;;;;;;;;;0.00;0.00;;;;;24.14;94.00;100417.03;2115721;27;47504;-70
2023/08/27 02:17:29;;;;;;;;;0.00;0.00;;;;;24.12;93.90;100411.75;2115396;27;46663;-69
2023/08/27 02:18:29;;;;;;;;;0.00;0.00;;;;;24.12;93.54;100410.91;2116000;27;45473;-70
2023/08/27 02:19:30;;;;;;;;;0.00;0.00;;;;;24.10;94.01;100408.31;2118047;27;45867;-70
2023/08/27 02:20:30;;;;;;;;;1.00;0.00;;;;;24.08;94.25;100416.56;2117530;27;46825;-70
2023/08/27 02:21:31;;;;;;;;;0.00;0.00;;;;;24.08;94.30;100423.84;2122045;27;45735;-70
2023/08/27 02:22:31;;;;;;;;;0.00;0.00;;;;;24.08;94.12;100421.13;2112915;27;46857;-70
2023/08/27 02:23:31;;;;;;;;;0.67;0.00;;;;;24.05;93.78;100416.84;2113190;27;45668;-71
2023/08/27 02:24:32;;;;;;;;;0.00;0.00;;;;;24.03;93.95;100421.53;2120298;27;45213;-68
2023/08/27 02:25:32;;;;;;;;;0.00;0.00;;;;;24.01;94.17;100422.63;2120567;27;46629;-70
2023/08/27 02:26:32;;;;;;;;;0.00;0.00;;;;;24.00;93.80;100431.75;2120962;27;46551;-70
2023/08/27 02:27:32;;;;;;;;;0.00;0.00;;;;;23.96;93.94;100419.44;2119520;27;46665;-71
2023/08/27 02:28:33;;;;;;;;;0.00;0.00;;;;;23.98;94.04;100425.59;2113559;27;46370;-69
2023/08/27 02:29:34;;;;;;;;;0.00;0.00;;;;;23.97;93.90;100430.16;2120615;27;44967;-71
2023/08/27 02:30:34;;;;;;;;;0.00;0.00;;;;;23.94;94.17;100424.13;2122213;27;46317;-70
2023/08/27 02:31:35;;;;;;;;;0.00;0.00;;;;;23.96;94.22;100435.69;2122153;27;46342;-70
2023/08/27 02:32:35;;;;;;;;;0.00;0.00;;;;;23.93;94.27;100427.84;2122072;27;46577;-69
2023/08/27 02:33:35;;;;;;;;;0.00;0.00;;;;;23.93;94.19;100423.28;2121885;27;46523;-70
2023/08/27 02:34:35;;;;;;;;;0.00;0.00;;;;;23.92;94.57;100426.97;2120809;27;46188;-69
2023/08/27 02:35:36;;;;;;;;;0.00;0.00;;;;;23.87;94.37;100422.91;2122428;27;46005;-69
2023/08/27 02:36:36;;;;;;;;;0.00;0.00;;;;;23.90;94.46;100420.81;2122241;27;46036;-70
2023/08/27 02:37:37;;;;;;;;;3.00;1.00;;;;;23.91;94.75;100418.97;2121204;27;46602;-70
2023/08/27 02:38:37;;;;;;;;;0.00;0.00;;;;;23.90;94.89;100422.66;2122028;27;46016;-68
2023/08/27 02:39:37;;;;;;;;;0.00;0.00;;;;;23.92;95.01;100424.25;2116359;27;45550;-69
2023/08/27 02:40:39;;;;;;;;;0.00;0.00;;;;;23.90;94.75;100420.81;2121357;27;46230;-70
2023/08/27 02:41:39;;;;;;;;;0.00;0.00;;;;;23.88;94.98;100420.06;2120687;27;45197;-69
2023/08/27 02:42:40;;;;;;;;;0.00;0.00;;;;;23.89;95.55;100413.69;2121417;27;46490;-70
2023/08/27 02:43:40;;;;;;;;;0.00;0.00;;;;;23.88;95.63;100416.47;2118438;27;46737;-70
2023/08/27 02:44:40;;;;;;;;;0.00;0.00;;;;;23.87;95.58;100412.06;2113642;27;45559;-70
2023/08/27 02:45:41;;;;;;;;;0.33;0.33;;;;;23.84;95.87;100412.31;2113059;27;46879;-69
2023/08/27 02:46:42;;;;;;;;;0.00;0.00;;;;;23.80;96.04;100406.28;2121867;27;46546;-71
2023/08/27 02:47:42;;;;;;;;;1.67;0.00;;;;;23.81;96.33;100418.00;2113348;27;45328;-70
2023/08/27 02:48:42;;;;;;;;;0.00;0.00;;;;;23.80;96.64;100411.72;2104509;28;46196;-69
2023/08/27 02:49:43;;;;;;;;;0.00;0.00;;;;;23.82;96.74;100415.16;2112988;27;45469;-69
2023/08/27 02:50:44;;;;;;;;;0.00;0.00;;;;;23.82;96.00;100422.41;2118468;27;45460;-70
2023/08/27 02:51:44;;;;;;;;;0.00;0.00;;;;;23.80;96.24;100424.41;2116021;27;45631;-69
2023/08/27 02:52:44;;;;;;;;;0.00;0.00;;;;;23.81;96.64;100423.41;2122204;27;45836;-69
2023/08/27 02:53:45;;;;;;;;;0.00;0.00;;;;;23.77;97.02;100425.50;2121645;27;46568;-70
2023/08/27 02:54:45;;;;;;;;;0.33;0.00;;;;;23.77;97.06;100420.09;2121821;27;46866;-69
2023/08/27 02:55:45;;;;;;;;;0.00;0.00;;;;;23.72;97.22;100422.31;2122231;27;47307;-70
2023/08/27 02:56:46;;;;;;;;;0.00;0.00;;;;;23.75;97.11;100425.63;2121444;27;46317;-70
2023/08/27 02:57:46;;;;;;;;;0.00;0.00;;;;;23.74;97.36;100418.47;2122293;27;46224;-70
2023/08/27 02:58:50;;;;;;;;;1.00;1.00;;;;;23.74;97.40;100418.47;2120615;27;46386;-70
2023/08/27 02:59:50;;;;;;;;;0.00;0.00;;;;;23.71;97.57;100420.56;2121869;27;46258;-70
2023/08/27 03:00:50;;;;;;;;;0.00;0.00;;;;;23.71;97.53;100431.41;2121588;27;46876;-70
2023/08/27 03:01:52;;;;;;;;;0.00;0.00;;;;;23.66;97.76;100420.97;2116463;27;46140;-70
2023/08/27 03:02:53;;;;;;;;;0.00;0.00;;;;;23.66;97.67;100429.09;2113398;27;45985;-70
2023/08/27 03:03:53;;;;;;;;;0.00;0.00;;;;;23.69;97.86;100423.41;2122228;27;46192;-70
2023/08/27 03:05:06;;;;;;;;;0.33;0.33;;;;;23.69;97.96;100438.81;2121869;27;46684;-70
2023/08/27 03:06:07;;;;;;;;;0.25;0.00;;;;;23.68;97.54;100428.97;2122004;27;46805;-69
2023/08/27 03:07:07;;;;;;;;;1.33;0.00;;;;;23.62;97.51;100424.88;2114061;27;46271;-70
2023/08/27 03:08:08;;;;;;;;;0.00;0.00;;;;;23.65;97.87;100426.50;2117092;27;47213;-70
2023/08/27 03:09:08;;;;;;;;;1.00;1.00;;;;;23.64;98.23;100424.78;2121545;27;45180;-70
2023/08/27 03:10:08;;;;;;;;;2.00;2.00;;;;;23.65;97.95;100424.66;2114408;27;46127;-69
2023/08/27 03:11:09;;;;;;;;;0.00;0.00;;;;;23.64;97.79;100427.50;2120263;27;46690;-69
2023/08/27 03:12:09;;;;;;;;;0.00;0.00;;;;;23.63;97.96;100426.63;2114030;27;46158;-70
2023/08/27 03:13:11;;;;;;;;;0.00;0.00;;;;;23.63;98.15;100426.63;2117009;27;45570;-69
2023/08/27 03:14:11;;;;;;;;;0.00;0.00;;;;;23.64;98.25;100425.66;2120311;27;46606;-70
2023/08/27 03:15:12;;;;;;;;;0.00;0.00;;;;;23.63;98.12;100426.63;2122215;27;45713;-69
2023/08/27 03:16:12;;;;;;;;;0.50;0.50;;;;;23.64;98.20;100436.50;2110936;27;45693;-70
2023/08/27 03:17:13;;;;;;;;;1.00;1.00;;;;;23.65;98.09;100423.81;2112956;27;46265;-69
2023/08/27 03:18:13;;;;;;;;;0.33;0.33;;;;;23.63;98.16;100425.75;2116360;27;46528;-68
2023/08/27 03:19:14;;;;;;;;;0.33;0.33;;;;;23.59;97.61;100429.69;2118183;27;45566;-69
2023/08/27 03:20:14;;;;;;;;;1.00;0.00;;;;;23.58;98.05;100430.69;2113444;27;45227;-69
2023/08/27 03:21:14;;;;;;;;;0.00;0.00;;;;;23.55;98.06;100426.34;2118780;27;45916;-69
2023/08/27 03:22:15;;;;;;;;;0.00;0.00;;;;;23.52;98.14;100425.75;2121847;27;47423;-69
2023/08/27 03:23:15;;;;;;;;;0.00;0.00;;;;;23.53;98.28;100425.63;2121537;27;46862;-71
2023/08/27 03:24:15;;;;;;;;;2.00;0.00;;;;;23.53;98.40;100430.16;2122167;27;46665;-69
2023/08/27 03:25:16;;;;;;;;;0.00;0.00;;;;;23.52;98.59;100423.91;2122022;27;46479;-70
2023/08/27 03:26:16;;;;;;;;;2.00;1.00;;;;;23.50;98.26;100428.53;2121445;27;46249;-69
2023/08/27 03:27:16;;;;;;;;;0.00;0.00;;;;;23.46;98.40;100430.66;2122156;27;45747;-69
2023/08/27 03:28:17;;;;;;;;;0.00;0.00;;;;;23.43;98.53;100430.91;2121628;27;46152;-69
2023/08/27 03:29:17;;;;;;;;;0.00;0.00;;;;;23.42;98.62;100431.03;2121838;27;46863;-70
2023/08/27 03:30:18;;;;;;;;;0.00;0.00;;;;;23.42;99.07;100437.31;2121804;27;46269;-71
2023/08/27 03:31:18;;;;;;;;;1.67;1.67;;;;;23.40;99.20;100436.56;2120730;27;45492;-69
2023/08/27 03:32:18;;;;;;;;;1.00;1.00;;;;;23.40;99.35;100435.72;2121483;27;46745;-71
2023/08/27 03:33:19;;;;;;;;;3.00;1.67;;;;;23.40;99.50;100444.69;2121933;27;46224;-70
2023/08/27 03:34:19;;;;;;;;;0.33;0.33;;;;;23.41;99.64;100446.41;2122204;27;45756;-69
2023/08/27 03:35:19;;;;;;;;;1.00;1.00;;;;;23.44;99.69;100442.59;2121687;27;46159;-69
2023/08/27 03:36:20;;;;;;;;;0.00;0.00;;;;;23.43;99.39;100443.59;2122217;27;46385;-69
2023/08/27 03:37:20;;;;;;;;;0.00;0.00;;;;;23.42;99.42;100450.84;2118680;27;44992;-71
2023/08/27 03:38:20;;;;;;;;;0.00;0.00;;;;;23.42;99.01;100441.84;2113415;27;45742;-70
2023/08/27 03:39:21;;;;;;;;;1.00;1.00;;;;;23.40;99.46;100443.84;2119880;27;46750;-69
2023/08/27 03:40:21;;;;;;;;;1.00;1.00;;;;;23.40;99.06;100443.84;2121954;27;46129;-70
2023/08/27 03:41:21;;;;;;;;;0.00;0.00;;;;;23.40;99.27;100443.84;2122281;27;45952;-70
2023/08/27 03:42:22;;;;;;;;;0.00;0.00;;;;;23.37;99.14;100439.50;2122043;27;46459;-69
2023/08/27 03:43:22;;;;;;;;;0.67;0.67;;;;;23.37;99.41;100444.06;2122569;27;45765;-69
2023/08/27 03:44:24;;;;;;;;;0.00;0.00;;;;;23.37;99.93;100444.06;2121531;27;46231;-69
2023/08/27 03:45:24;;;;;;;;;1.00;1.00;;;;;23.33;99.80;100438.03;2112586;27;46395;-69
2023/08/27 03:46:24;;;;;;;;;2.67;2.00;;;;;23.33;99.82;100439.88;2114690;27;46200;-70
2023/08/27 03:47:25;;;;;;;;;1.67;1.00;;;;;23.31;100.00;100444.56;2123496;27;45867;-69
2023/08/27 03:48:25;;;;;;;;;0.67;0.67;;;;;23.32;99.94;100447.13;2114646;27;46283;-69
2023/08/27 03:49:25;;;;;;;;;2.00;0.00;;;;;23.31;99.82;100452.69;2113041;27;45047;-69
2023/08/27 03:50:26;;;;;;;;;0.00;0.00;;;;;23.29;99.81;100450.09;2123487;27;46784;-70
2023/08/27 03:51:28;;;;;;;;;0.00;0.00;;;;;23.30;100.00;100459.94;2123346;27;45789;-69
2023/08/27 03:52:28;;;;;;;;;1.00;1.00;;;;;23.29;100.00;100457.34;2123268;27;46737;-69
2023/08/27 03:53:29;;;;;;;;;0.67;0.67;;;;;23.27;100.00;100454.78;2123739;27;45532;-70
2023/08/27 03:54:30;;;;;;;;;0.00;0.00;;;;;23.27;100.00;100454.78;2123441;27;45950;-69
2023/08/27 03:55:33;;;;;;;;;1.00;1.00;;;;;23.27;100.00;100452.06;2123156;27;46349;-70
2023/08/27 03:56:33;;;;;;;;;0.00;0.00;;;;;23.28;100.00;100452.91;2122874;27;46682;-70
2023/08/27 03:57:33;;;;;;;;;1.33;1.00;;;;;23.29;100.00;100457.34;2123181;27;45526;-70
2023/08/27 03:58:34;;;;;;;;;1.67;1.00;;;;;23.31;100.00;100452.69;2114019;27;46280;-70
2023/08/27 03:59:34;;;;;;;;;1.33;0.33;;;;;23.31;100.00;100460.78;2113890;27;45289;-70
2023/08/27 04:00:35;;;;;;;;;1.00;1.00;;;;;23.31;100.00;100455.38;2123216;27;46186;-70
2023/08/27 04:01:35;;;;;;;;;1.00;1.00;;;;;23.31;100.00;100452.69;2123191;27;46743;-69
2023/08/27 04:02:35;;;;;;;;;1.33;1.33;;;;;23.29;100.00;100455.50;2124186;27;45900;-70
2023/08/27 04:03:36;;;;;;;;;1.00;1.00;;;;;23.31;100.00;100460.78;2123105;27;46065;-69
2023/08/27 04:04:36;;;;;;;;;1.00;1.00;;;;;23.32;100.00;100459.81;2122956;27;46054;-70
2023/08/27 04:05:38;;;;;;;;;1.00;1.00;;;;;23.32;100.00;100457.97;2122146;27;45495;-70
2023/08/27 04:06:39;;;;;;;;;0.75;0.75;;;;;23.34;100.00;100452.41;2114377;27;46395;-70
2023/08/27 04:07:39;;;;;;;;;1.00;1.00;;;;;23.34;100.00;100457.84;2113748;27;46789;-69
2023/08/27 04:08:39;;;;;;;;;0.00;0.00;;;;;23.34;100.00;100458.69;2122954;27;46661;-70
2023/08/27 04:09:39;;;;;;;;;0.00;0.00;;;;;23.32;100.00;100463.38;2123250;27;45730;-70
2023/08/27 04:10:50;;;;;;;;;1.00;1.00;;;;;23.32;100.00;100463.38;2123839;27;44985;-70
2023/08/27 04:11:50;;;;;;;;;0.75;0.00;;;;;23.29;100.00;100469.03;2121959;27;45531;-71
2023/08/27 04:12:50;;;;;;;;;0.00;0.00;;;;;23.28;100.00;100472.75;2122775;27;46204;-70
2023/08/27 04:13:51;;;;;;;;;0.00;0.00;;;;;23.26;100.00;100463.88;2123113;27;46254;-70
2023/08/27 04:14:51;;;;;;;;;0.67;0.00;;;;;23.25;100.00;100466.69;2119852;27;45592;-68
2023/08/27 04:16:01;;;;;;;;;1.00;0.00;;;;;23.25;100.00;100469.38;2114839;27;46216;-70
2023/08/27 04:17:02;;;;;;;;;3.75;1.00;;;;;23.22;100.00;100467.78;2122961;27;48843;-70
2023/08/27 04:18:02;;;;;;;;;3.00;1.67;;;;;23.21;100.00;100463.34;2123292;27;45855;-69
2023/08/27 04:19:03;;;;;;;;;0.00;0.00;;;;;23.17;100.00;100473.56;2122703;27;45779;-69
2023/08/27 04:20:04;;;;;;;;;0.00;0.00;;;;;23.16;100.00;100460.16;2122789;27;47128;-69
2023/08/27 04:21:05;;;;;;;;;1.00;1.00;;;;;23.16;100.00;100471.00;2120671;27;46863;-69
2023/08/27 04:22:05;;;;;;;;;0.00;0.00;;;;;23.14;100.00;100464.84;2122539;27;46625;-70
2023/08/27 04:23:05;;;;;;;;;0.67;0.67;;;;;23.14;100.00;100464.84;2122103;27;45847;-69
2023/08/27 04:24:06;;;;;;;;;0.33;0.33;;;;;23.14;100.00;100468.41;2121631;27;46503;-70
2023/08/27 04:25:09;;;;;;;;;0.67;0.67;;;;;23.15;100.00;100471.97;2123734;27;45771;-70
2023/08/27 04:26:09;;;;;;;;;0.00;0.00;;;;;23.12;100.00;100472.19;2123279;27;46651;-71
2023/08/27 04:27:10;;;;;;;;;0.00;0.00;;;;;23.12;100.00;100467.66;2113915;27;46177;-71
2023/08/27 04:28:10;;;;;;;;;0.33;0.33;;;;;23.11;100.00;100471.31;2114382;27;45421;-70
2023/08/27 04:29:11;;;;;;;;;1.00;1.00;;;;;23.11;100.00;100470.47;2123260;27;45442;-72
2023/08/27 04:30:12;;;;;;;;;1.00;1.00;;;;;23.10;100.00;100476.88;2123337;27;45209;-69
2023/08/27 04:31:12;;;;;;;;;0.00;0.00;;;;;;;;2123217;27;45948;-69
2023/08/27 04:32:13;;;;;;;;;1.00;0.00;;;;;23.10;100.00;100482.28;2122828;27;46391;-70
2023/08/27 04:33:13;;;;;;;;;2.00;2.00;;;;;23.10;100.00;100477.72;2123251;27;46467;-69
2023/08/27 04:34:13;;;;;;;;;1.00;1.00;;;;;;;;2123064;27;46091;-70
2023/08/27 04:35:14;;;;;;;;;0.00;0.00;;;;;23.07;100.00;100475.25;2123388;27;46132;-69
2023/08/27 04:36:14;;;;;;;;;1.00;1.00;;;;;23.05;100.00;100473.66;2114141;27;45844;-69
2023/08/27 04:37:15;;;;;;;;;0.33;0.33;;;;;23.05;100.00;100476.38;2114372;27;45541;-70
2023/08/27 04:38:16;;;;;;;;;1.00;0.00;;;;;23.04;100.00;100474.66;2122958;27;46646;-69
2023/08/27 04:39:16;;;;;;;;;2.75;0.00;;;;;23.02;100.00;100474.78;2123040;27;46705;-69
2023/08/27 04:40:16;;;;;;;;;1.00;0.00;;;;;23.03;100.00;100475.63;2120387;27;46135;-69
2023/08/27 04:41:17;;;;;;;;;0.00;0.00;;;;;23.00;100.00;100476.75;2122894;27;46389;-70
2023/08/27 04:42:17;;;;;;;;;0.33;0.33;;;;;23.01;100.00;100472.19;2122547;27;46487;-71
2023/08/27 04:43:18;;;;;;;;;0.00;0.00;;;;;23.01;100.00;100469.47;2122917;27;46464;-71
2023/08/27 04:44:18;;;;;;;;;0.67;0.67;;;;;23.01;100.00;100473.06;2115520;27;45629;-69